sensor_id;sensor_type;location;lat;lon;timestamp;temperature;humidity
25951;DHT22;13748;52.240;6.002;2022-12-18T00:01:34;-2.30;99.90
25951;DHT22;13748;52.240;6.002;2022-12-18T00:04:06;-2.40;99.90
25951;DHT22;13748;52.240;6.002;2022-12-18T00:06:35;-2.40;99.90
25951;DHT22;13748;52.240;6.002;2022-12-18T00:09:02;-2.50;99.90
25951;DHT22;13748;52.240;6.002;2022-12-18T00:11:30;-2.60;99.90
25951;DHT22;13748;52.240;6.002;2022-12-18T00:13:59;-2.70;99.90
25951;DHT22;13748;52.240;6.002;2022-12-18T00:16:27;-2.70;99.90
25951;DHT22;13748;52.240;6.002;2022-12-18T00:18:58;-2.80;99.90
25951;DHT22;13748;52.240;6.002;2022-12-18T00:21:26;-2.90;99.90
25951;DHT22;13748;52.240;6.002;2022-12-18T00:23:54;-3.00;99.90
25951;DHT22;13748;52.240;6.002;2022-12-18T00:26:23;-3.10;99.90
25951;DHT22;13748;52.240;6.002;2022-12-18T00:28:51;-3.10;99.90
25951;DHT22;13748;52.240;6.002;2022-12-18T00:31:20;-3.20;99.90
25951;DHT22;13748;52.240;6.002;2022-12-18T00:33:48;-3.20;99.90
25951;DHT22;13748;52.240;6.002;2022-12-18T00:36:23;-3.20;99.90
25951;DHT22;13748;52.240;6.002;2022-12-18T00:38:50;-3.20;99.90
25951;DHT22;13748;52.240;6.002;2022-12-18T00:41:18;-3.20;99.90
25951;DHT22;13748;52.240;6.002;2022-12-18T00:44:06;-3.30;99.90
25951;DHT22;13748;52.240;6.002;2022-12-18T00:46:33;-3.30;99.90
25951;DHT22;13748;52.240;6.002;2022-12-18T00:49:00;-3.30;99.90
25951;DHT22;13748;52.240;6.002;2022-12-18T00:51:27;-3.30;99.90
25951;DHT22;13748;52.240;6.002;2022-12-18T00:53:54;-3.30;99.90
25951;DHT22;13748;52.240;6.002;2022-12-18T00:56:24;-3.30;99.90
25951;DHT22;13748;52.240;6.002;2022-12-18T00:58:50;-3.30;99.90
25951;DHT22;13748;52.240;6.002;2022-12-18T01:01:18;-3.30;99.90
25951;DHT22;13748;52.240;6.002;2022-12-18T01:03:45;-3.40;99.90
25951;DHT22;13748;52.240;6.002;2022-12-18T01:06:14;-3.30;99.90
25951;DHT22;13748;52.240;6.002;2022-12-18T01:08:41;-3.30;99.90
25951;DHT22;13748;52.240;6.002;2022-12-18T01:11:13;-3.30;99.90
25951;DHT22;13748;52.240;6.002;2022-12-18T01:13:41;-3.40;99.90
25951;DHT22;13748;52.240;6.002;2022-12-18T01:16:08;-3.40;99.90
25951;DHT22;13748;52.240;6.002;2022-12-18T01:18:35;-3.50;99.90
25951;DHT22;13748;52.240;6.002;2022-12-18T01:21:13;-3.50;99.90
25951;DHT22;13748;52.240;6.002;2022-12-18T01:23:40;-3.50;99.90
25951;DHT22;13748;52.240;6.002;2022-12-18T01:26:13;-3.60;99.90
25951;DHT22;13748;52.240;6.002;2022-12-18T01:28:40;-3.60;99.90
25951;DHT22;13748;52.240;6.002;2022-12-18T01:31:31;-3.60;99.90
25951;DHT22;13748;52.240;6.002;2022-12-18T01:34:01;-3.70;99.90
25951;DHT22;13748;52.240;6.002;2022-12-18T01:36:36;-3.70;99.90
25951;DHT22;13748;52.240;6.002;2022-12-18T01:39:06;-3.80;99.90
25951;DHT22;13748;52.240;6.002;2022-12-18T01:41:34;-3.90;99.90
25951;DHT22;13748;52.240;6.002;2022-12-18T01:44:53;-3.90;99.90
25951;DHT22;13748;52.240;6.002;2022-12-18T01:49:59;-4.10;99.90
25951;DHT22;13748;52.240;6.002;2022-12-18T01:52:29;-4.10;99.90
25951;DHT22;13748;52.240;6.002;2022-12-18T01:54:57;-4.20;99.90
25951;DHT22;13748;52.240;6.002;2022-12-18T01:57:25;-4.20;99.90
25951;DHT22;13748;52.240;6.002;2022-12-18T01:59:54;-4.30;99.90
25951;DHT22;13748;52.240;6.002;2022-12-18T02:02:22;-4.30;99.90
25951;DHT22;13748;52.240;6.002;2022-12-18T02:04:49;-4.30;99.90
25951;DHT22;13748;52.240;6.002;2022-12-18T02:10:19;-4.40;99.90
25951;DHT22;13748;52.240;6.002;2022-12-18T02:12:59;-4.40;99.90
25951;DHT22;13748;52.240;6.002;2022-12-18T02:15:40;-4.40;99.90
25951;DHT22;13748;52.240;6.002;2022-12-18T02:18:38;-4.40;99.90
25951;DHT22;13748;52.240;6.002;2022-12-18T02:21:31;-4.40;99.90
25951;DHT22;13748;52.240;6.002;2022-12-18T02:24:33;-4.50;99.90
25951;DHT22;13748;52.240;6.002;2022-12-18T02:27:05;-4.50;99.90
25951;DHT22;13748;52.240;6.002;2022-12-18T02:32:04;-4.60;99.90
25951;DHT22;13748;52.240;6.002;2022-12-18T02:34:36;-4.60;99.90
25951;DHT22;13748;52.240;6.002;2022-12-18T02:37:07;-4.70;99.90
25951;DHT22;13748;52.240;6.002;2022-12-18T02:39:37;-4.70;99.90
25951;DHT22;13748;52.240;6.002;2022-12-18T02:42:05;-4.70;99.90
25951;DHT22;13748;52.240;6.002;2022-12-18T02:44:41;-4.70;99.90
25951;DHT22;13748;52.240;6.002;2022-12-18T02:47:13;-4.70;99.90
25951;DHT22;13748;52.240;6.002;2022-12-18T02:52:35;-4.70;99.90
25951;DHT22;13748;52.240;6.002;2022-12-18T02:57:58;-4.80;99.90
25951;DHT22;13748;52.240;6.002;2022-12-18T03:00:41;-4.80;99.90
25951;DHT22;13748;52.240;6.002;2022-12-18T03:03:14;-4.80;99.90
25951;DHT22;13748;52.240;6.002;2022-12-18T03:08:20;-4.90;99.90
25951;DHT22;13748;52.240;6.002;2022-12-18T03:10:59;-4.90;99.90
25951;DHT22;13748;52.240;6.002;2022-12-18T03:13:39;-5.00;99.90
25951;DHT22;13748;52.240;6.002;2022-12-18T03:16:10;-5.00;99.90
25951;DHT22;13748;52.240;6.002;2022-12-18T03:21:08;-5.00;99.90
25951;DHT22;13748;52.240;6.002;2022-12-18T03:23:42;-5.10;99.90
25951;DHT22;13748;52.240;6.002;2022-12-18T03:26:14;-5.10;99.90
25951;DHT22;13748;52.240;6.002;2022-12-18T03:28:58;-5.10;99.90
25951;DHT22;13748;52.240;6.002;2022-12-18T03:31:28;-5.20;99.90
25951;DHT22;13748;52.240;6.002;2022-12-18T03:33:58;-5.20;99.90
25951;DHT22;13748;52.240;6.002;2022-12-18T03:36:25;-5.20;99.90
25951;DHT22;13748;52.240;6.002;2022-12-18T03:38:53;-5.20;99.90
25951;DHT22;13748;52.240;6.002;2022-12-18T03:41:36;-5.30;99.90
25951;DHT22;13748;52.240;6.002;2022-12-18T03:44:35;-5.30;99.90
25951;DHT22;13748;52.240;6.002;2022-12-18T03:47:10;-5.30;99.90
25951;DHT22;13748;52.240;6.002;2022-12-18T03:52:40;-5.30;99.90
25951;DHT22;13748;52.240;6.002;2022-12-18T03:55:09;-5.40;99.90
25951;DHT22;13748;52.240;6.002;2022-12-18T03:57:38;-5.40;99.90
25951;DHT22;13748;52.240;6.002;2022-12-18T04:00:14;-5.40;99.90
25951;DHT22;13748;52.240;6.002;2022-12-18T04:02:46;-5.40;99.90
25951;DHT22;13748;52.240;6.002;2022-12-18T04:05:15;-5.40;99.90
25951;DHT22;13748;52.240;6.002;2022-12-18T04:07:44;-5.40;99.90
25951;DHT22;13748;52.240;6.002;2022-12-18T04:10:12;-5.40;99.90
25951;DHT22;13748;52.240;6.002;2022-12-18T04:12:40;-5.40;99.90
25951;DHT22;13748;52.240;6.002;2022-12-18T04:15:08;-5.50;99.90
25951;DHT22;13748;52.240;6.002;2022-12-18T04:17:35;-5.50;99.90
25951;DHT22;13748;52.240;6.002;2022-12-18T04:20:02;-5.50;99.90
25951;DHT22;13748;52.240;6.002;2022-12-18T04:22:29;-5.50;99.90
25951;DHT22;13748;52.240;6.002;2022-12-18T04:24:55;-5.50;99.90
25951;DHT22;13748;52.240;6.002;2022-12-18T04:27:22;-5.50;99.90
25951;DHT22;13748;52.240;6.002;2022-12-18T04:29:49;-5.60;99.90
25951;DHT22;13748;52.240;6.002;2022-12-18T04:32:15;-5.60;99.90
25951;DHT22;13748;52.240;6.002;2022-12-18T04:34:42;-5.60;99.90
25951;DHT22;13748;52.240;6.002;2022-12-18T04:37:09;-5.60;99.90
25951;DHT22;13748;52.240;6.002;2022-12-18T04:39:35;-5.60;99.90
25951;DHT22;13748;52.240;6.002;2022-12-18T04:42:02;-5.60;99.90
25951;DHT22;13748;52.240;6.002;2022-12-18T04:44:29;-5.60;99.90
25951;DHT22;13748;52.240;6.002;2022-12-18T04:46:55;-5.60;99.90
25951;DHT22;13748;52.240;6.002;2022-12-18T04:49:22;-5.60;99.90
25951;DHT22;13748;52.240;6.002;2022-12-18T04:51:49;-5.60;99.90
25951;DHT22;13748;52.240;6.002;2022-12-18T04:54:19;-5.60;99.90
25951;DHT22;13748;52.240;6.002;2022-12-18T04:56:45;-5.60;99.90
25951;DHT22;13748;52.240;6.002;2022-12-18T04:59:12;-5.60;99.90
25951;DHT22;13748;52.240;6.002;2022-12-18T05:01:39;-5.60;99.90
25951;DHT22;13748;52.240;6.002;2022-12-18T05:04:06;-5.60;99.90
25951;DHT22;13748;52.240;6.002;2022-12-18T05:06:33;-5.60;99.90
25951;DHT22;13748;52.240;6.002;2022-12-18T05:09:00;-5.60;99.90
25951;DHT22;13748;52.240;6.002;2022-12-18T05:11:27;-5.60;99.90
25951;DHT22;13748;52.240;6.002;2022-12-18T05:13:56;-5.60;99.90
25951;DHT22;13748;52.240;6.002;2022-12-18T05:16:23;-5.70;99.90
25951;DHT22;13748;52.240;6.002;2022-12-18T05:18:50;-5.70;99.90
25951;DHT22;13748;52.240;6.002;2022-12-18T05:21:16;-5.70;99.90
25951;DHT22;13748;52.240;6.002;2022-12-18T05:23:43;-5.70;99.90
25951;DHT22;13748;52.240;6.002;2022-12-18T05:26:15;-5.70;99.90
25951;DHT22;13748;52.240;6.002;2022-12-18T05:28:44;-5.70;99.90
25951;DHT22;13748;52.240;6.002;2022-12-18T05:31:11;-5.70;99.90
25951;DHT22;13748;52.240;6.002;2022-12-18T05:33:38;-5.70;99.90
25951;DHT22;13748;52.240;6.002;2022-12-18T05:36:07;-5.70;99.90
25951;DHT22;13748;52.240;6.002;2022-12-18T05:38:36;-5.80;99.90
25951;DHT22;13748;52.240;6.002;2022-12-18T05:41:04;-5.80;99.90
25951;DHT22;13748;52.240;6.002;2022-12-18T05:43:34;-5.80;99.90
25951;DHT22;13748;52.240;6.002;2022-12-18T05:46:09;-5.80;99.90
25951;DHT22;13748;52.240;6.002;2022-12-18T05:48:37;-5.80;99.90
25951;DHT22;13748;52.240;6.002;2022-12-18T05:51:06;-5.90;99.90
25951;DHT22;13748;52.240;6.002;2022-12-18T05:53:33;-5.90;99.90
25951;DHT22;13748;52.240;6.002;2022-12-18T05:56:06;-5.90;99.90
25951;DHT22;13748;52.240;6.002;2022-12-18T05:58:34;-5.90;99.90
25951;DHT22;13748;52.240;6.002;2022-12-18T06:01:15;-5.90;99.90
25951;DHT22;13748;52.240;6.002;2022-12-18T06:03:46;-5.90;99.90
25951;DHT22;13748;52.240;6.002;2022-12-18T06:06:18;-5.90;99.90
25951;DHT22;13748;52.240;6.002;2022-12-18T06:08:46;-5.90;99.90
25951;DHT22;13748;52.240;6.002;2022-12-18T06:11:15;-5.90;99.90
25951;DHT22;13748;52.240;6.002;2022-12-18T06:13:42;-5.90;99.90
25951;DHT22;13748;52.240;6.002;2022-12-18T06:16:12;-5.90;99.90
25951;DHT22;13748;52.240;6.002;2022-12-18T06:18:39;-5.90;99.90
25951;DHT22;13748;52.240;6.002;2022-12-18T06:21:06;-5.90;99.90
25951;DHT22;13748;52.240;6.002;2022-12-18T06:23:33;-5.90;99.90
25951;DHT22;13748;52.240;6.002;2022-12-18T06:26:09;-5.90;99.90
25951;DHT22;13748;52.240;6.002;2022-12-18T06:28:35;-5.90;99.90
25951;DHT22;13748;52.240;6.002;2022-12-18T06:31:03;-5.90;99.90
25951;DHT22;13748;52.240;6.002;2022-12-18T06:33:31;-5.90;99.90
25951;DHT22;13748;52.240;6.002;2022-12-18T06:36:03;-5.90;99.90
25951;DHT22;13748;52.240;6.002;2022-12-18T06:38:32;-5.80;99.90
25951;DHT22;13748;52.240;6.002;2022-12-18T06:40:59;-5.90;99.90
25951;DHT22;13748;52.240;6.002;2022-12-18T06:43:26;-5.90;99.90
25951;DHT22;13748;52.240;6.002;2022-12-18T06:46:00;-5.80;99.90
25951;DHT22;13748;52.240;6.002;2022-12-18T06:48:27;-5.90;99.90
25951;DHT22;13748;52.240;6.002;2022-12-18T06:50:54;-5.90;99.90
25951;DHT22;13748;52.240;6.002;2022-12-18T06:53:21;-5.90;99.90
25951;DHT22;13748;52.240;6.002;2022-12-18T06:55:48;-5.90;99.90
25951;DHT22;13748;52.240;6.002;2022-12-18T06:58:14;-5.90;99.90
25951;DHT22;13748;52.240;6.002;2022-12-18T07:00:41;-5.80;99.90
25951;DHT22;13748;52.240;6.002;2022-12-18T07:03:09;-5.90;99.90
25951;DHT22;13748;52.240;6.002;2022-12-18T07:05:40;-5.90;99.90
25951;DHT22;13748;52.240;6.002;2022-12-18T07:08:07;-5.90;99.90
25951;DHT22;13748;52.240;6.002;2022-12-18T07:10:41;-5.90;99.90
25951;DHT22;13748;52.240;6.002;2022-12-18T07:13:13;-5.90;99.90
25951;DHT22;13748;52.240;6.002;2022-12-18T07:15:41;-5.90;99.90
25951;DHT22;13748;52.240;6.002;2022-12-18T07:18:08;-5.90;99.90
25951;DHT22;13748;52.240;6.002;2022-12-18T07:20:35;-5.90;99.90
25951;DHT22;13748;52.240;6.002;2022-12-18T07:23:03;-5.90;99.90
25951;DHT22;13748;52.240;6.002;2022-12-18T07:25:33;-5.90;99.90
25951;DHT22;13748;52.240;6.002;2022-12-18T07:27:59;-5.80;99.90
25951;DHT22;13748;52.240;6.002;2022-12-18T07:30:27;-5.80;99.90
25951;DHT22;13748;52.240;6.002;2022-12-18T07:32:53;-5.80;99.90
25951;DHT22;13748;52.240;6.002;2022-12-18T07:35:20;-5.80;99.90
25951;DHT22;13748;52.240;6.002;2022-12-18T07:37:50;-5.80;99.90
25951;DHT22;13748;52.240;6.002;2022-12-18T07:40:17;-5.80;99.90
25951;DHT22;13748;52.240;6.002;2022-12-18T07:42:44;-5.80;99.90
25951;DHT22;13748;52.240;6.002;2022-12-18T07:45:11;-5.70;99.90
25951;DHT22;13748;52.240;6.002;2022-12-18T07:47:37;-5.80;99.90
25951;DHT22;13748;52.240;6.002;2022-12-18T07:50:04;-5.70;99.90
25951;DHT22;13748;52.240;6.002;2022-12-18T07:52:31;-5.70;99.90
25951;DHT22;13748;52.240;6.002;2022-12-18T07:54:58;-5.70;99.90
25951;DHT22;13748;52.240;6.002;2022-12-18T07:57:25;-5.60;99.90
25951;DHT22;13748;52.240;6.002;2022-12-18T08:00:12;-5.60;99.90
25951;DHT22;13748;52.240;6.002;2022-12-18T08:02:39;-5.60;99.90
25951;DHT22;13748;52.240;6.002;2022-12-18T08:05:08;-5.50;99.90
25951;DHT22;13748;52.240;6.002;2022-12-18T08:07:34;-5.50;99.90
25951;DHT22;13748;52.240;6.002;2022-12-18T08:10:01;-5.50;99.90
25951;DHT22;13748;52.240;6.002;2022-12-18T08:12:29;-5.40;99.90
25951;DHT22;13748;52.240;6.002;2022-12-18T08:14:56;-5.40;99.90
25951;DHT22;13748;52.240;6.002;2022-12-18T08:17:23;-5.30;99.90
25951;DHT22;13748;52.240;6.002;2022-12-18T08:19:49;-5.30;99.90
25951;DHT22;13748;52.240;6.002;2022-12-18T08:22:16;-5.20;99.90
25951;DHT22;13748;52.240;6.002;2022-12-18T08:24:43;-5.20;99.90
25951;DHT22;13748;52.240;6.002;2022-12-18T08:27:09;-5.20;99.90
25951;DHT22;13748;52.240;6.002;2022-12-18T08:29:55;-5.10;99.90
25951;DHT22;13748;52.240;6.002;2022-12-18T08:32:22;-5.00;99.90
25951;DHT22;13748;52.240;6.002;2022-12-18T08:34:49;-5.00;99.90
25951;DHT22;13748;52.240;6.002;2022-12-18T08:37:15;-4.90;99.90
25951;DHT22;13748;52.240;6.002;2022-12-18T08:39:42;-4.90;99.90
25951;DHT22;13748;52.240;6.002;2022-12-18T08:42:09;-4.80;99.90
25951;DHT22;13748;52.240;6.002;2022-12-18T08:44:55;-4.80;99.90
25951;DHT22;13748;52.240;6.002;2022-12-18T08:47:21;-4.70;99.90
25951;DHT22;13748;52.240;6.002;2022-12-18T08:49:48;-4.70;99.90
25951;DHT22;13748;52.240;6.002;2022-12-18T08:52:15;-4.60;99.90
25951;DHT22;13748;52.240;6.002;2022-12-18T08:54:41;-4.50;99.90
25951;DHT22;13748;52.240;6.002;2022-12-18T08:57:08;-4.50;99.90
25951;DHT22;13748;52.240;6.002;2022-12-18T08:59:35;-4.40;99.90
25951;DHT22;13748;52.240;6.002;2022-12-18T09:02:01;-4.40;99.90
25951;DHT22;13748;52.240;6.002;2022-12-18T09:04:28;-4.40;99.90
25951;DHT22;13748;52.240;6.002;2022-12-18T09:06:55;-4.30;99.90
25951;DHT22;13748;52.240;6.002;2022-12-18T09:09:22;-4.20;99.90
25951;DHT22;13748;52.240;6.002;2022-12-18T09:11:49;-4.20;99.90
25951;DHT22;13748;52.240;6.002;2022-12-18T09:14:15;-4.20;99.90
25951;DHT22;13748;52.240;6.002;2022-12-18T09:16:42;-4.10;99.90
25951;DHT22;13748;52.240;6.002;2022-12-18T09:19:09;-4.00;99.90
25951;DHT22;13748;52.240;6.002;2022-12-18T09:21:36;-4.00;99.90
25951;DHT22;13748;52.240;6.002;2022-12-18T09:24:14;-3.90;99.90
25951;DHT22;13748;52.240;6.002;2022-12-18T09:26:41;-3.80;99.90
25951;DHT22;13748;52.240;6.002;2022-12-18T09:29:12;-3.70;99.90
25951;DHT22;13748;52.240;6.002;2022-12-18T09:31:39;-3.70;99.90
25951;DHT22;13748;52.240;6.002;2022-12-18T09:34:13;-3.60;99.90
25951;DHT22;13748;52.240;6.002;2022-12-18T09:36:40;-3.50;99.90
25951;DHT22;13748;52.240;6.002;2022-12-18T09:39:06;-3.40;99.90
25951;DHT22;13748;52.240;6.002;2022-12-18T09:41:47;-3.40;99.90
25951;DHT22;13748;52.240;6.002;2022-12-18T09:46:49;-3.30;99.90
25951;DHT22;13748;52.240;6.002;2022-12-18T09:49:21;-3.20;99.90
25951;DHT22;13748;52.240;6.002;2022-12-18T09:52:15;-3.10;99.90
25951;DHT22;13748;52.240;6.002;2022-12-18T09:54:52;-3.10;99.90
25951;DHT22;13748;52.240;6.002;2022-12-18T09:57:22;-3.00;99.90
25951;DHT22;13748;52.240;6.002;2022-12-18T10:00:00;-2.90;99.90
25951;DHT22;13748;52.240;6.002;2022-12-18T10:02:30;-2.80;99.90
25951;DHT22;13748;52.240;6.002;2022-12-18T10:05:07;-2.80;99.90
25951;DHT22;13748;52.240;6.002;2022-12-18T10:07:47;-2.70;99.90
25951;DHT22;13748;52.240;6.002;2022-12-18T10:20:58;-2.40;99.90
25951;DHT22;13748;52.240;6.002;2022-12-18T10:26:44;-2.30;99.90
25951;DHT22;13748;52.240;6.002;2022-12-18T10:29:12;-2.20;99.90
25951;DHT22;13748;52.240;6.002;2022-12-18T10:31:40;-2.20;99.90
25951;DHT22;13748;52.240;6.002;2022-12-18T10:34:13;-2.10;99.90
25951;DHT22;13748;52.240;6.002;2022-12-18T10:36:41;-2.00;99.90
25951;DHT22;13748;52.240;6.002;2022-12-18T10:41:46;-1.90;99.90
25951;DHT22;13748;52.240;6.002;2022-12-18T10:44:19;-1.80;99.90
25951;DHT22;13748;52.240;6.002;2022-12-18T10:46:50;-1.80;99.90
25951;DHT22;13748;52.240;6.002;2022-12-18T10:49:37;-1.70;99.90
25951;DHT22;13748;52.240;6.002;2022-12-18T10:55:03;-1.70;99.90
25951;DHT22;13748;52.240;6.002;2022-12-18T10:57:36;-1.60;99.90
25951;DHT22;13748;52.240;6.002;2022-12-18T11:00:28;-1.50;99.90
25951;DHT22;13748;52.240;6.002;2022-12-18T11:02:55;-1.50;99.90
25951;DHT22;13748;52.240;6.002;2022-12-18T11:05:32;-1.40;99.90
25951;DHT22;13748;52.240;6.002;2022-12-18T11:08:00;-1.40;99.90
25951;DHT22;13748;52.240;6.002;2022-12-18T11:10:32;-1.30;99.90
25951;DHT22;13748;52.240;6.002;2022-12-18T11:13:32;-1.20;99.90
25951;DHT22;13748;52.240;6.002;2022-12-18T11:15:59;-1.20;99.90
25951;DHT22;13748;52.240;6.002;2022-12-18T11:18:29;-1.10;99.90
25951;DHT22;13748;52.240;6.002;2022-12-18T11:21:08;-1.10;99.90
25951;DHT22;13748;52.240;6.002;2022-12-18T11:23:37;-1.00;99.90
25951;DHT22;13748;52.240;6.002;2022-12-18T11:26:10;-1.00;99.90
25951;DHT22;13748;52.240;6.002;2022-12-18T11:36:58;-0.80;99.90
25951;DHT22;13748;52.240;6.002;2022-12-18T11:39:36;-0.80;99.90
25951;DHT22;13748;52.240;6.002;2022-12-18T11:42:20;-0.70;99.90
25951;DHT22;13748;52.240;6.002;2022-12-18T11:47:52;-0.70;99.90
25951;DHT22;13748;52.240;6.002;2022-12-18T11:50:42;-0.60;99.90
25951;DHT22;13748;52.240;6.002;2022-12-18T11:53:12;-0.60;99.90
25951;DHT22;13748;52.240;6.002;2022-12-18T12:04:18;-0.50;99.90
25951;DHT22;13748;52.240;6.002;2022-12-18T12:07:02;-0.40;99.90
25951;DHT22;13748;52.240;6.002;2022-12-18T12:18:32;-0.20;99.90
25951;DHT22;13748;52.240;6.002;2022-12-18T12:21:21;-0.20;99.90
25951;DHT22;13748;52.240;6.002;2022-12-18T12:24:04;-0.20;99.90
25951;DHT22;13748;52.240;6.002;2022-12-18T12:26:37;-0.20;99.90
25951;DHT22;13748;52.240;6.002;2022-12-18T12:29:26;-0.20;99.90
25951;DHT22;13748;52.240;6.002;2022-12-18T12:34:32;-0.10;99.90
25951;DHT22;13748;52.240;6.002;2022-12-18T12:39:49;0.00;99.90
25951;DHT22;13748;52.240;6.002;2022-12-18T12:42:41;-0.10;99.90
25951;DHT22;13748;52.240;6.002;2022-12-18T12:45:49;0.00;99.90
25951;DHT22;13748;52.240;6.002;2022-12-18T12:48:31;0.00;99.90
25951;DHT22;13748;52.240;6.002;2022-12-18T12:51:03;0.00;99.90
25951;DHT22;13748;52.240;6.002;2022-12-18T12:53:36;0.00;99.90
25951;DHT22;13748;52.240;6.002;2022-12-18T12:56:05;0.00;99.90
25951;DHT22;13748;52.240;6.002;2022-12-18T13:07:03;0.10;99.90
25951;DHT22;13748;52.240;6.002;2022-12-18T13:09:33;0.10;99.90
25951;DHT22;13748;52.240;6.002;2022-12-18T13:12:07;0.10;99.90
25951;DHT22;13748;52.240;6.002;2022-12-18T13:15:21;0.10;99.90
25951;DHT22;13748;52.240;6.002;2022-12-18T13:17:49;0.10;99.90
25951;DHT22;13748;52.240;6.002;2022-12-18T13:20:19;0.20;99.90
25951;DHT22;13748;52.240;6.002;2022-12-18T13:22:48;0.20;99.90
25951;DHT22;13748;52.240;6.002;2022-12-18T13:25:33;0.20;99.90
25951;DHT22;13748;52.240;6.002;2022-12-18T13:28:07;0.20;99.90
25951;DHT22;13748;52.240;6.002;2022-12-18T13:38:37;0.20;99.90
25951;DHT22;13748;52.240;6.002;2022-12-18T13:46:28;0.20;99.90
25951;DHT22;13748;52.240;6.002;2022-12-18T13:48:59;0.20;99.90
25951;DHT22;13748;52.240;6.002;2022-12-18T13:51:27;0.20;99.90
25951;DHT22;13748;52.240;6.002;2022-12-18T13:54:06;0.20;99.90
25951;DHT22;13748;52.240;6.002;2022-12-18T13:56:44;0.20;99.90
25951;DHT22;13748;52.240;6.002;2022-12-18T14:01:45;0.30;99.90
25951;DHT22;13748;52.240;6.002;2022-12-18T14:04:19;0.20;99.90
25951;DHT22;13748;52.240;6.002;2022-12-18T14:06:47;0.20;99.90
25951;DHT22;13748;52.240;6.002;2022-12-18T14:09:24;0.20;99.90
25951;DHT22;13748;52.240;6.002;2022-12-18T14:11:53;0.20;99.90
25951;DHT22;13748;52.240;6.002;2022-12-18T14:14:46;0.20;99.90
25951;DHT22;13748;52.240;6.002;2022-12-18T14:17:17;0.20;99.90
25951;DHT22;13748;52.240;6.002;2022-12-18T14:19:49;0.20;99.90
25951;DHT22;13748;52.240;6.002;2022-12-18T14:22:21;0.20;99.90
25951;DHT22;13748;52.240;6.002;2022-12-18T14:27:50;0.20;99.90
25951;DHT22;13748;52.240;6.002;2022-12-18T14:35:27;0.20;99.90
25951;DHT22;13748;52.240;6.002;2022-12-18T14:38:07;0.20;99.90
25951;DHT22;13748;52.240;6.002;2022-12-18T14:40:34;0.20;99.90
25951;DHT22;13748;52.240;6.002;2022-12-18T14:43:02;0.20;99.90
25951;DHT22;13748;52.240;6.002;2022-12-18T14:45:37;0.20;99.90
25951;DHT22;13748;52.240;6.002;2022-12-18T14:48:32;0.20;99.90
25951;DHT22;13748;52.240;6.002;2022-12-18T14:51:16;0.20;99.90
25951;DHT22;13748;52.240;6.002;2022-12-18T14:53:58;0.20;99.90
25951;DHT22;13748;52.240;6.002;2022-12-18T14:56:32;0.20;99.90
25951;DHT22;13748;52.240;6.002;2022-12-18T14:59:05;0.20;99.90
25951;DHT22;13748;52.240;6.002;2022-12-18T15:04:36;0.20;99.90
25951;DHT22;13748;52.240;6.002;2022-12-18T15:07:21;0.20;99.90
25951;DHT22;13748;52.240;6.002;2022-12-18T15:12:46;0.20;99.90
25951;DHT22;13748;52.240;6.002;2022-12-18T15:20:45;0.30;99.90
25951;DHT22;13748;52.240;6.002;2022-12-18T15:23:24;0.30;99.90
25951;DHT22;13748;52.240;6.002;2022-12-18T15:26:06;0.30;99.90
25951;DHT22;13748;52.240;6.002;2022-12-18T15:28:55;0.20;99.90
25951;DHT22;13748;52.240;6.002;2022-12-18T15:31:26;0.30;99.90
25951;DHT22;13748;52.240;6.002;2022-12-18T15:36:23;0.30;99.90
25951;DHT22;13748;52.240;6.002;2022-12-18T15:38:54;0.40;99.90
25951;DHT22;13748;52.240;6.002;2022-12-18T15:41:32;0.20;99.90
25951;DHT22;13748;52.240;6.002;2022-12-18T15:44:02;0.20;99.90
25951;DHT22;13748;52.240;6.002;2022-12-18T15:46:29;0.20;99.90
25951;DHT22;13748;52.240;6.002;2022-12-18T15:48:58;0.20;99.90
25951;DHT22;13748;52.240;6.002;2022-12-18T15:53:59;0.30;99.90
25951;DHT22;13748;52.240;6.002;2022-12-18T15:56:27;0.30;99.90
25951;DHT22;13748;52.240;6.002;2022-12-18T15:59:14;0.20;99.90
25951;DHT22;13748;52.240;6.002;2022-12-18T16:01:42;0.20;99.90
25951;DHT22;13748;52.240;6.002;2022-12-18T16:04:12;0.20;99.90
25951;DHT22;13748;52.240;6.002;2022-12-18T16:06:39;0.20;99.90
25951;DHT22;13748;52.240;6.002;2022-12-18T16:09:26;0.20;99.90
25951;DHT22;13748;52.240;6.002;2022-12-18T16:11:53;0.20;99.90
25951;DHT22;13748;52.240;6.002;2022-12-18T16:14:28;0.20;99.90
25951;DHT22;13748;52.240;6.002;2022-12-18T16:17:01;0.20;99.90
25951;DHT22;13748;52.240;6.002;2022-12-18T16:19:29;0.20;99.90
25951;DHT22;13748;52.240;6.002;2022-12-18T16:21:57;0.20;99.90
25951;DHT22;13748;52.240;6.002;2022-12-18T16:24:27;0.20;99.90
25951;DHT22;13748;52.240;6.002;2022-12-18T16:26:59;0.20;99.90
25951;DHT22;13748;52.240;6.002;2022-12-18T16:29:27;0.20;99.90
25951;DHT22;13748;52.240;6.002;2022-12-18T16:31:59;0.20;99.90
25951;DHT22;13748;52.240;6.002;2022-12-18T16:34:31;0.20;99.90
25951;DHT22;13748;52.240;6.002;2022-12-18T16:37:06;0.20;99.90
25951;DHT22;13748;52.240;6.002;2022-12-18T16:39:36;0.30;99.90
25951;DHT22;13748;52.240;6.002;2022-12-18T16:42:12;0.30;99.90
25951;DHT22;13748;52.240;6.002;2022-12-18T16:44:41;0.20;99.90
25951;DHT22;13748;52.240;6.002;2022-12-18T16:47:09;0.30;99.90
25951;DHT22;13748;52.240;6.002;2022-12-18T16:49:38;0.30;99.90
25951;DHT22;13748;52.240;6.002;2022-12-18T16:52:05;0.20;99.90
25951;DHT22;13748;52.240;6.002;2022-12-18T16:54:33;0.20;99.90
25951;DHT22;13748;52.240;6.002;2022-12-18T16:57:02;0.30;99.90
25951;DHT22;13748;52.240;6.002;2022-12-18T16:59:31;0.30;99.90
25951;DHT22;13748;52.240;6.002;2022-12-18T17:01:57;0.30;99.90
25951;DHT22;13748;52.240;6.002;2022-12-18T17:04:24;0.30;99.90
25951;DHT22;13748;52.240;6.002;2022-12-18T17:06:51;0.30;99.90
25951;DHT22;13748;52.240;6.002;2022-12-18T17:09:20;0.30;99.90
25951;DHT22;13748;52.240;6.002;2022-12-18T17:11:51;0.40;99.90
25951;DHT22;13748;52.240;6.002;2022-12-18T17:14:20;0.30;99.90
25951;DHT22;13748;52.240;6.002;2022-12-18T17:16:47;0.30;99.90
25951;DHT22;13748;52.240;6.002;2022-12-18T17:19:34;0.30;99.90
25951;DHT22;13748;52.240;6.002;2022-12-18T17:22:01;0.40;99.90
25951;DHT22;13748;52.240;6.002;2022-12-18T17:24:28;0.40;99.90
25951;DHT22;13748;52.240;6.002;2022-12-18T17:27:00;0.40;99.90
25951;DHT22;13748;52.240;6.002;2022-12-18T17:29:27;0.40;99.90
25951;DHT22;13748;52.240;6.002;2022-12-18T17:31:54;0.40;99.90
25951;DHT22;13748;52.240;6.002;2022-12-18T17:34:22;0.50;99.90
25951;DHT22;13748;52.240;6.002;2022-12-18T17:36:49;0.50;99.90
25951;DHT22;13748;52.240;6.002;2022-12-18T17:39:18;0.50;99.90
25951;DHT22;13748;52.240;6.002;2022-12-18T17:41:46;0.50;99.90
25951;DHT22;13748;52.240;6.002;2022-12-18T17:44:13;0.50;99.90
25951;DHT22;13748;52.240;6.002;2022-12-18T17:46:40;0.50;99.90
25951;DHT22;13748;52.240;6.002;2022-12-18T17:49:06;0.50;99.90
25951;DHT22;13748;52.240;6.002;2022-12-18T17:51:33;0.50;99.90
25951;DHT22;13748;52.240;6.002;2022-12-18T17:54:00;0.60;99.90
25951;DHT22;13748;52.240;6.002;2022-12-18T17:56:27;0.60;99.90
25951;DHT22;13748;52.240;6.002;2022-12-18T17:58:54;0.60;99.90
25951;DHT22;13748;52.240;6.002;2022-12-18T18:01:23;0.60;99.90
25951;DHT22;13748;52.240;6.002;2022-12-18T18:03:51;0.60;99.90
25951;DHT22;13748;52.240;6.002;2022-12-18T18:06:19;0.60;99.90
25951;DHT22;13748;52.240;6.002;2022-12-18T18:08:46;0.60;99.90